Time;durP1;ratioP1;P1;durP2;ratioP2;P2;SDS_P1;SDS_P2;PMS_P1;PMS_P2;Temp;Humidity;BMP_temperature;BMP_pressure;BME280_temperature;BME280_humidity;BME280_pressure;Samples;Min_cycle;Max_cycle;Signal;HPM_P1;HPM_P2
2023/02/06 00:00:11;;;;;;;;;;;;;;;;;;1039232;28;19921;-77
2023/02/06 00:00:42;;;;;;;;;;;;;;;;;;1037487;28;20062;-77
2023/02/06 00:01:13;;;;;;;;;;;;;;;;;;1031339;28;19910;-77
2023/02/06 00:01:44;;;;;;;;;;;;;;;;;;1035380;28;19914;-77
2023/02/06 00:02:15;;;;;;;;;;;;;;;;;;1039054;28;19913;-77
2023/02/06 00:02:45;;;;;;;;;;;;;;;;;;1038023;28;19909;-77
2023/02/06 00:03:16;;;;;;;;;;;;;;;;;;1035029;28;20029;-77
2023/02/06 00:03:47;;;;;;;;;;;;;;;;;;1038190;28;19920;-76
2023/02/06 00:04:18;;;;;;;;;;;;;;;;;;1039478;28;19999;-76
2023/02/06 00:04:49;;;;;;;;;;;;;;;;;;1039544;28;19913;-76
2023/02/06 00:05:20;;;;;;;;;;;;;;;;;;1043710;28;19913;-76
2023/02/06 00:05:51;;;;;;;;;;;;;;;;;;1043704;28;20027;-77
2023/02/06 00:06:22;;;;;;;;;;;;;;;;;;1039288;28;19913;-77
2023/02/06 00:06:52;;;;;;;;;;;;;;;;;;1039232;28;19948;-76
2023/02/06 00:07:23;;;;;;;;;;;;;;;;;;1036246;28;19953;-77
2023/02/06 00:07:54;;;;;;;;;;;;;;;;;;1035106;28;20652;-76
2023/02/06 00:08:25;;;;;;;;;;;;;;;;;;1035275;28;19921;-75
2023/02/06 00:08:56;;;;;;;;;;;;;;;;;;1038510;28;19913;-78
2023/02/06 00:09:27;;;;;;;;;;;;;;;;;;1039226;28;20019;-76
2023/02/06 00:09:58;;;;;;;;;;;;;;;;;;1039347;28;19944;-76
2023/02/06 00:10:28;;;;;;;;;;;;;;;;;;1039173;28;19917;-75
2023/02/06 00:10:59;;;;;;;;;;;;;;;;;;1039534;28;19915;-75
2023/02/06 00:11:30;;;;;;;;;;;;;;;;;;1039507;28;19987;-77
2023/02/06 00:12:01;;;;;;;;;;;;;;;;;;1041956;28;19913;-76
2023/02/06 00:12:32;;;;;;;;;;;;;;;;;;1043855;28;19913;-75
2023/02/06 00:13:03;;;;;;;;;;;;;;;;;;1043604;28;19913;-76
2023/02/06 00:13:34;;;;;;;;;;;;;;;;;;1043817;28;19919;-76
2023/02/06 00:14:05;;;;;;;;;;;;;;;;;;1043698;28;19954;-76
2023/02/06 00:14:36;;;;;;;;;;;;;;;;;;1035613;28;19913;-74
2023/02/06 00:15:07;;;;;;;;;;;;;;;;;;1035455;28;19957;-75
2023/02/06 00:15:38;;;;;;;;;;;;;;;;;;1035627;28;19913;-75
2023/02/06 00:16:11;;;;;;;;;;;;;;;;;;1040874;28;19913;-76
2023/02/06 00:16:42;;;;;;;;;;;;;;;;;;1039742;28;20000;-76
2023/02/06 00:17:13;;;;;;;;;;;;;;;;;;1039224;28;19913;-76
2023/02/06 00:17:43;;;;;;;;;;;;;;;;;;1036825;28;19988;-76
2023/02/06 00:18:14;;;;;;;;;;;;;;;;;;1034989;28;19918;-77
2023/02/06 00:18:45;;;;;;;;;;;;;;;;;;1035346;28;20603;-74
2023/02/06 00:19:16;;;;;;;;;;;;;;;;;;1035267;28;20040;-75
2023/02/06 00:19:47;;;;;;;;;;;;;;;;;;1039464;28;19913;-75
2023/02/06 00:20:18;;;;;;;;;;;;;;;;;;1043586;28;20486;-75
2023/02/06 00:20:49;;;;;;;;;;;;;;;;;;1043747;28;19912;-76
2023/02/06 00:21:20;;;;;;;;;;;;;;;;;;1038996;28;19940;-75
2023/02/06 00:21:51;;;;;;;;;;;;;;;;;;1039304;28;20438;-75
2023/02/06 00:22:22;;;;;;;;;;;;;;;;;;1035841;28;19913;-76
2023/02/06 00:22:53;;;;;;;;;;;;;;;;;;1037490;28;19915;-75
2023/02/06 00:23:24;;;;;;;;;;;;;;;;;;1039228;28;20433;-76
2023/02/06 00:23:55;;;;;;;;;;;;;;;;;;1039474;28;19920;-76
2023/02/06 00:24:26;;;;;;;;;;;;;;;;;;1039108;28;20554;-76
2023/02/06 00:24:57;;;;;;;;;;;;;;;;;;1039277;28;19920;-76
2023/02/06 00:25:27;;;;;;;;;;;;;;;;;;1039090;28;20035;-76
2023/02/06 00:25:58;;;;;;;;;;;;;;;;;;1039275;28;19909;-76
2023/02/06 00:26:30;;;;;;;;;;;;;;;;;;1034821;28;19920;-76
2023/02/06 00:27:01;;;;;;;;;;;;;;;;;;1035699;28;20000;-75
2023/02/06 00:27:32;;;;;;;;;;;;;;;;;;1039164;28;19945;-77
2023/02/06 00:28:02;;;;;;;;;;;;;;;;;;1039653;28;19963;-76
2023/02/06 00:28:33;;;;;;;;;;;;;;;;;;1039094;28;19913;-76
2023/02/06 00:29:04;;;;;;;;;;;;;;;;;;1039415;28;19913;-76
2023/02/06 00:29:35;;;;;;;;;;;;;;;;;;1039147;28;19920;-77
2023/02/06 00:30:06;;;;;;;;;;;;;;;;;;1037236;28;19982;-76
2023/02/06 00:30:37;;;;;;;;;;;;;;;;;;1035192;28;20447;-76
2023/02/06 00:31:08;;;;;;;;;;;;;;;;;;1035296;28;19913;-76
2023/02/06 00:31:39;;;;;;;;;;;;;;;;;;1039568;28;20396;-76
2023/02/06 00:32:09;;;;;;;;;;;;;;;;;;1037853;28;19921;-76
2023/02/06 00:32:40;;;;;;;;;;;;;;;;;;1035233;28;19929;-76
2023/02/06 00:33:11;;;;;;;;;;;;;;;;;;1038235;28;19913;-76
2023/02/06 00:33:42;;;;;;;;;;;;;;;;;;1039584;28;19913;-76
2023/02/06 00:34:13;;;;;;;;;;;;;;;;;;1039648;28;20004;-74
2023/02/06 00:34:44;;;;;;;;;;;;;;;;;;1041481;28;20020;-76
2023/02/06 00:35:15;;;;;;;;;;;;;;;;;;1043575;28;19920;-76
2023/02/06 00:35:46;;;;;;;;;;;;;;;;;;1043925;28;20499;-77
2023/02/06 00:36:16;;;;;;;;;;;;;;;;;;1039916;28;19995;-76
2023/02/06 00:36:47;;;;;;;;;;;;;;;;;;1039199;28;19914;-76
2023/02/06 00:37:18;;;;;;;;;;;;;;;;;;1039386;28;20391;-76
2023/02/06 00:37:49;;;;;;;;;;;;;;;;;;1039175;28;20386;-76
2023/02/06 00:38:20;;;;;;;;;;;;;;;;;;1039064;28;19909;-76
2023/02/06 00:38:51;;;;;;;;;;;;;;;;;;1039225;28;20375;-77
2023/02/06 00:39:22;;;;;;;;;;;;;;;;;;1040650;28;19966;-77
2023/02/06 00:39:53;;;;;;;;;;;;;;;;;;1040905;28;19948;-77
2023/02/06 00:40:24;;;;;;;;;;;;;;;;;;1038959;28;19959;-77
2023/02/06 00:40:54;;;;;;;;;;;;;;;;;;1039048;28;20581;-77
2023/02/06 00:41:25;;;;;;;;;;;;;;;;;;1039107;28;19940;-76
2023/02/06 00:41:56;;;;;;;;;;;;;;;;;;1038999;28;19905;-76
2023/02/06 00:42:27;;;;;;;;;;;;;;;;;;1039036;28;19995;-77
2023/02/06 00:42:58;;;;;;;;;;;;;;;;;;1038916;28;19943;-77
2023/02/06 00:43:29;;;;;;;;;;;;;;;;;;1038850;28;19914;-76
2023/02/06 00:44:00;;;;;;;;;;;;;;;;;;1039047;28;19995;-77
2023/02/06 00:44:31;;;;;;;;;;;;;;;;;;1038778;28;19945;-77
2023/02/06 00:45:01;;;;;;;;;;;;;;;;;;1037782;28;19910;-76
2023/02/06 00:45:32;;;;;;;;;;;;;;;;;;1039772;28;20689;-76
2023/02/06 00:46:03;;;;;;;;;;;;;;;;;;1034976;28;19910;-77
2023/02/06 00:46:34;;;;;;;;;;;;;;;;;;1036187;28;19909;-77
2023/02/06 00:47:05;;;;;;;;;;;;;;;;;;1038948;28;19910;-77
2023/02/06 00:47:36;;;;;;;;;;;;;;;;;;1039115;28;19976;-77
2023/02/06 00:48:08;;;;;;;;;;;;;;;;;;1042939;28;19924;-77
2023/02/06 00:48:39;;;;;;;;;;;;;;;;;;1039446;28;19909;-76
2023/02/06 00:49:09;;;;;;;;;;;;;;;;;;1043386;28;19916;-77
2023/02/06 00:49:40;;;;;;;;;;;;;;;;;;1043601;28;19916;-76
2023/02/06 00:50:11;;;;;;;;;;;;;;;;;;1043211;28;19908;-76
2023/02/06 00:50:42;;;;;;;;;;;;;;;;;;1043384;28;19940;-77
2023/02/06 00:51:13;;;;;;;;;;;;;;;;;;1038938;28;19958;-76
2023/02/06 00:51:44;;;;;;;;;;;;;;;;;;1040775;28;20435;-77
2023/02/06 00:52:15;;;;;;;;;;;;;;;;;;1043071;28;20248;-77
2023/02/06 00:52:46;;;;;;;;;;;;;;;;;;1036730;28;19916;-77
2023/02/06 00:53:16;;;;;;;;;;;;;;;;;;1039606;28;19905;-76
2023/02/06 00:53:47;;;;;;;;;;;;;;;;;;1043128;28;20467;-76
2023/02/06 00:54:19;;;;;;;;;;;;;;;;;;1043230;28;19909;-77
2023/02/06 00:54:50;;;;;;;;;;;;;;;;;;1043312;28;19908;-77
2023/02/06 00:55:21;;;;;;;;;;;;;;;;;;1043120;28;19909;-77
2023/02/06 00:55:52;;;;;;;;;;;;;;;;;;1043141;28;19908;-77
2023/02/06 00:56:23;;;;;;;;;;;;;;;;;;1043119;28;19944;-77
2023/02/06 00:56:54;;;;;;;;;;;;;;;;;;1043016;28;19936;-77
2023/02/06 00:57:24;;;;;;;;;;;;;;;;;;1043333;28;20323;-77
2023/02/06 00:57:55;;;;;;;;;;;;;;;;;;1043141;28;19909;-77
2023/02/06 00:58:26;;;;;;;;;;;;;;;;;;1042173;28;20796;-77
2023/02/06 00:58:57;;;;;;;;;;;;;;;;;;1039177;28;19959;-77
2023/02/06 00:59:28;;;;;;;;;;;;;;;;;;1039165;28;19913;-76
2023/02/06 00:59:59;;;;;;;;;;;;;;;;;;1038957;28;20596;-77
2023/02/06 01:00:30;;;;;;;;;;;;;;;;;;1041556;28;20499;-76
2023/02/06 01:01:01;;;;;;;;;;;;;;;;;;1034842;28;19921;-76
2023/02/06 01:01:31;;;;;;;;;;;;;;;;;;1034744;28;20068;-77
2023/02/06 01:02:02;;;;;;;;;;;;;;;;;;1037626;28;20686;-77
2023/02/06 01:02:33;;;;;;;;;;;;;;;;;;1034869;28;19917;-77
2023/02/06 01:03:04;;;;;;;;;;;;;;;;;;1035027;28;19969;-77
2023/02/06 01:03:35;;;;;;;;;;;;;;;;;;1040259;28;20047;-78
2023/02/06 01:04:06;;;;;;;;;;;;;;;;;;1046855;28;20619;-77
2023/02/06 01:04:37;;;;;;;;;;;;;;;;;;1043243;28;19909;-77
2023/02/06 01:05:08;;;;;;;;;;;;;;;;;;1043408;28;19977;-77
2023/02/06 01:05:38;;;;;;;;;;;;;;;;;;1047484;28;19958;-77
2023/02/06 01:06:09;;;;;;;;;;;;;;;;;;1042918;28;20023;-77
2023/02/06 01:06:40;;;;;;;;;;;;;;;;;;1043054;28;19913;-77
2023/02/06 01:07:11;;;;;;;;;;;;;;;;;;1042873;28;19940;-76
2023/02/06 01:07:42;;;;;;;;;;;;;;;;;;1043090;28;20372;-77
2023/02/06 01:08:13;;;;;;;;;;;;;;;;;;1038446;28;20100;-77
2023/02/06 01:08:44;;;;;;;;;;;;;;;;;;1038405;28;19920;-77
2023/02/06 01:09:15;;;;;;;;;;;;;;;;;;1042838;28;20501;-77
2023/02/06 01:09:45;;;;;;;;;;;;;;;;;;1038888;28;19910;-77
2023/02/06 01:10:16;;;;;;;;;;;;;;;;;;1038574;28;19941;-76
2023/02/06 01:10:47;;;;;;;;;;;;;;;;;;1038982;28;20356;-76
2023/02/06 01:11:18;;;;;;;;;;;;;;;;;;1043287;28;19913;-77
2023/02/06 01:11:49;;;;;;;;;;;;;;;;;;1047402;28;20592;-76
2023/02/06 01:12:20;;;;;;;;;;;;;;;;;;1042911;28;19913;-77
2023/02/06 01:12:51;;;;;;;;;;;;;;;;;;1042765;28;19994;-76
2023/02/06 01:13:22;;;;;;;;;;;;;;;;;;1042996;28;20300;-76
2023/02/06 01:13:52;;;;;;;;;;;;;;;;;;1042848;28;19920;-77
2023/02/06 01:14:23;;;;;;;;;;;;;;;;;;1043239;28;19963;-76
2023/02/06 01:14:54;;;;;;;;;;;;;;;;;;1042737;28;20359;-76
2023/02/06 01:15:25;;;;;;;;;;;;;;;;;;1043226;28;20280;-77
2023/02/06 01:15:56;;;;;;;;;;;;;;;;;;1042765;28;20007;-77
2023/02/06 01:16:27;;;;;;;;;;;;;;;;;;1041404;28;20280;-77
2023/02/06 01:16:58;;;;;;;;;;;;;;;;;;1039269;28;20397;-76
2023/02/06 01:17:28;;;;;;;;;;;;;;;;;;1035253;28;19924;-77
2023/02/06 01:17:59;;;;;;;;;;;;;;;;;;1042912;28;20719;-76
2023/02/06 01:18:30;;;;;;;;;;;;;;;;;;1040846;28;19992;-76
2023/02/06 01:19:01;;;;;;;;;;;;;;;;;;1039001;28;20261;-77
2023/02/06 01:19:32;;;;;;;;;;;;;;;;;;1046006;28;19923;-77
2023/02/06 01:20:03;;;;;;;;;;;;;;;;;;1047455;28;19991;-77
2023/02/06 01:20:34;;;;;;;;;;;;;;;;;;1047236;28;20333;-76
2023/02/06 01:21:05;;;;;;;;;;;;;;;;;;1047547;28;19932;-77
2023/02/06 01:21:35;;;;;;;;;;;;;;;;;;1047533;28;19932;-76
2023/02/06 01:22:06;;;;;;;;;;;;;;;;;;1047793;28;19908;-76
2023/02/06 01:22:37;;;;;;;;;;;;;;;;;;1047454;28;19963;-77
2023/02/06 01:23:09;;;;;;;;;;;;;;;;;;1043641;28;20323;-77
2023/02/06 01:23:40;;;;;;;;;;;;;;;;;;1043729;28;19909;-76
2023/02/06 01:24:11;;;;;;;;;;;;;;;;;;1043408;28;20461;-77
2023/02/06 01:24:41;;;;;;;;;;;;;;;;;;1046720;28;20030;-77
2023/02/06 01:25:12;;;;;;;;;;;;;;;;;;1047637;28;19909;-76
2023/02/06 01:25:43;;;;;;;;;;;;;;;;;;1047736;28;19905;-76
2023/02/06 01:26:14;;;;;;;;;;;;;;;;;;1047325;28;20031;-76
2023/02/06 01:26:45;;;;;;;;;;;;;;;;;;1043039;28;20370;-76
2023/02/06 01:27:16;;;;;;;;;;;;;;;;;;1043027;28;20011;-76
2023/02/06 01:27:47;;;;;;;;;;;;;;;;;;1042949;28;19909;-75
2023/02/06 01:28:17;;;;;;;;;;;;;;;;;;1043083;28;19909;-76
2023/02/06 01:28:48;;;;;;;;;;;;;;;;;;1043126;28;20010;-75
2023/02/06 01:29:19;;;;;;;;;;;;;;;;;;1043200;28;19909;-76
2023/02/06 01:29:50;;;;;;;;;;;;;;;;;;1043318;28;20007;-75
2023/02/06 01:30:21;;;;;;;;;;;;;;;;;;1043195;28;20347;-76
2023/02/06 01:30:53;;;;;;;;;;;;;;;;;;1042991;28;19908;-77
2023/02/06 01:31:24;;;;;;;;;;;;;;;;;;1038972;28;20396;-76
2023/02/06 01:31:55;;;;;;;;;;;;;;;;;;1038953;28;20616;-76
2023/02/06 01:32:26;;;;;;;;;;;;;;;;;;1036148;28;20009;-76
2023/02/06 01:32:57;;;;;;;;;;;;;;;;;;1035101;28;19913;-76
2023/02/06 01:33:27;;;;;;;;;;;;;;;;;;1038925;28;19951;-76
2023/02/06 01:33:59;;;;;;;;;;;;;;;;;;1038978;28;19947;-75
2023/02/06 01:34:30;;;;;;;;;;;;;;;;;;1035133;28;19909;-76
2023/02/06 01:35:00;;;;;;;;;;;;;;;;;;1039145;28;19932;-76
2023/02/06 01:35:31;;;;;;;;;;;;;;;;;;1038947;28;19909;-76
2023/02/06 01:36:02;;;;;;;;;;;;;;;;;;1039358;28;19909;-76
2023/02/06 01:36:33;;;;;;;;;;;;;;;;;;1038708;28;19909;-76
2023/02/06 01:37:04;;;;;;;;;;;;;;;;;;1039130;28;19948;-76
2023/02/06 01:37:35;;;;;;;;;;;;;;;;;;1038920;28;19913;-76
2023/02/06 01:38:06;;;;;;;;;;;;;;;;;;1040939;28;20597;-76
2023/02/06 01:38:37;;;;;;;;;;;;;;;;;;1043032;28;20348;-76
2023/02/06 01:39:07;;;;;;;;;;;;;;;;;;1039302;28;20016;-76
2023/02/06 01:39:38;;;;;;;;;;;;;;;;;;1039079;28;20464;-77
2023/02/06 01:40:09;;;;;;;;;;;;;;;;;;1043256;28;19913;-76
2023/02/06 01:40:40;;;;;;;;;;;;;;;;;;1047652;28;19908;-76
2023/02/06 01:41:11;;;;;;;;;;;;;;;;;;1034768;28;20384;-75
2023/02/06 01:41:42;;;;;;;;;;;;;;;;;;1041430;28;19917;-76
2023/02/06 01:42:13;;;;;;;;;;;;;;;;;;1042975;28;19978;-76
2023/02/06 01:42:44;;;;;;;;;;;;;;;;;;1043484;28;19913;-76
2023/02/06 01:43:14;;;;;;;;;;;;;;;;;;1047473;28;19914;-76
2023/02/06 01:43:45;;;;;;;;;;;;;;;;;;1047622;28;19916;-76
2023/02/06 01:44:16;;;;;;;;;;;;;;;;;;1047439;28;20014;-77
2023/02/06 01:44:47;;;;;;;;;;;;;;;;;;1046744;28;20550;-76
2023/02/06 01:45:18;;;;;;;;;;;;;;;;;;1043257;28;20390;-76
2023/02/06 01:45:49;;;;;;;;;;;;;;;;;;1043452;28;19909;-76
2023/02/06 01:46:20;;;;;;;;;;;;;;;;;;1043346;28;19932;-76
2023/02/06 01:46:51;;;;;;;;;;;;;;;;;;1047070;28;19908;-77
2023/02/06 01:47:21;;;;;;;;;;;;;;;;;;1043340;28;20028;-76
2023/02/06 01:47:52;;;;;;;;;;;;;;;;;;1043525;28;20749;-76
2023/02/06 01:48:23;;;;;;;;;;;;;;;;;;1045727;28;19905;-77
2023/02/06 01:48:54;;;;;;;;;;;;;;;;;;1042070;28;20463;-76
2023/02/06 01:49:25;;;;;;;;;;;;;;;;;;1038897;28;19913;-76
2023/02/06 01:49:56;;;;;;;;;;;;;;;;;;1040047;28;19909;-77
2023/02/06 01:50:27;;;;;;;;;;;;;;;;;;1038937;28;19991;-77
2023/02/06 01:50:58;;;;;;;;;;;;;;;;;;1039074;28;19981;-76
2023/02/06 01:51:29;;;;;;;;;;;;;;;;;;1039106;28;19944;-77
2023/02/06 01:52:00;;;;;;;;;;;;;;;;;;1039139;28;19909;-77
2023/02/06 01:52:30;;;;;;;;;;;;;;;;;;1043216;28;19909;-76
2023/02/06 01:53:01;;;;;;;;;;;;;;;;;;1043247;28;20399;-76
2023/02/06 01:53:32;;;;;;;;;;;;;;;;;;1042884;28;19917;-77
2023/02/06 01:54:03;;;;;;;;;;;;;;;;;;1043173;28;19905;-77
2023/02/06 01:54:34;;;;;;;;;;;;;;;;;;1042821;28;20560;-77
2023/02/06 01:55:05;;;;;;;;;;;;;;;;;;1043145;28;20023;-76
2023/02/06 01:55:36;;;;;;;;;;;;;;;;;;1043312;28;19916;-77
2023/02/06 01:56:07;;;;;;;;;;;;;;;;;;1047271;28;19943;-77
2023/02/06 01:56:37;;;;;;;;;;;;;;;;;;1047544;28;20527;-77
2023/02/06 01:57:08;;;;;;;;;;;;;;;;;;1039342;28;19909;-77
2023/02/06 01:57:40;;;;;;;;;;;;;;;;;;1038921;28;20494;-77
2023/02/06 01:58:11;;;;;;;;;;;;;;;;;;1038886;28;19909;-77
2023/02/06 01:58:42;;;;;;;;;;;;;;;;;;1041953;28;19905;-76
2023/02/06 01:59:13;;;;;;;;;;;;;;;;;;1043080;28;19909;-77
2023/02/06 01:59:44;;;;;;;;;;;;;;;;;;1037060;28;20047;-76
2023/02/06 02:00:15;;;;;;;;;;;;;;;;;;1036687;28;19918;-76
2023/02/06 02:00:46;;;;;;;;;;;;;;;;;;1040776;28;19913;-77
2023/02/06 02:01:16;;;;;;;;;;;;;;;;;;1039285;28;20750;-76
2023/02/06 02:01:47;;;;;;;;;;;;;;;;;;1043856;28;19912;-77
2023/02/06 02:02:18;;;;;;;;;;;;;;;;;;1047353;28;19958;-76
2023/02/06 02:02:49;;;;;;;;;;;;;;;;;;1043046;28;19919;-76
2023/02/06 02:03:20;;;;;;;;;;;;;;;;;;1043101;28;19974;-76
2023/02/06 02:03:51;;;;;;;;;;;;;;;;;;1042746;28;19913;-76
2023/02/06 02:04:22;;;;;;;;;;;;;;;;;;1041576;28;19972;-76
2023/02/06 02:04:52;;;;;;;;;;;;;;;;;;1039047;28;19928;-77
2023/02/06 02:05:23;;;;;;;;;;;;;;;;;;1041329;28;19913;-76
2023/02/06 02:05:54;;;;;;;;;;;;;;;;;;1047334;28;20367;-76
2023/02/06 02:06:25;;;;;;;;;;;;;;;;;;1047236;28;19918;-76
2023/02/06 02:06:56;;;;;;;;;;;;;;;;;;1047527;28;19908;-75
2023/02/06 02:07:27;;;;;;;;;;;;;;;;;;1043001;28;20511;-76
2023/02/06 02:07:59;;;;;;;;;;;;;;;;;;1043132;28;19992;-76
2023/02/06 02:08:30;;;;;;;;;;;;;;;;;;1042908;28;19982;-76
2023/02/06 02:09:01;;;;;;;;;;;;;;;;;;1043193;28;20021;-76
2023/02/06 02:09:32;;;;;;;;;;;;;;;;;;1043383;28;19913;-76
2023/02/06 02:10:03;;;;;;;;;;;;;;;;;;1047653;28;19919;-76
2023/02/06 02:10:34;;;;;;;;;;;;;;;;;;1047176;28;19963;-76
2023/02/06 02:11:05;;;;;;;;;;;;;;;;;;1047598;28;19912;-76
2023/02/06 02:11:36;;;;;;;;;;;;;;;;;;1042813;28;19936;-76
2023/02/06 02:12:06;;;;;;;;;;;;;;;;;;1043001;28;19912;-77
2023/02/06 02:12:37;;;;;;;;;;;;;;;;;;1043067;28;19919;-75
2023/02/06 02:13:08;;;;;;;;;;;;;;;;;;1043081;28;20614;-77
2023/02/06 02:13:39;;;;;;;;;;;;;;;;;;1042994;28;19920;-76
2023/02/06 02:14:10;;;;;;;;;;;;;;;;;;1039301;28;19987;-76
2023/02/06 02:14:41;;;;;;;;;;;;;;;;;;1041359;28;20382;-77
2023/02/06 02:15:12;;;;;;;;;;;;;;;;;;1038918;28;20370;-77
2023/02/06 02:15:43;;;;;;;;;;;;;;;;;;1034984;28;19976;-77
2023/02/06 02:16:14;;;;;;;;;;;;;;;;;;1042472;28;20034;-77
2023/02/06 02:16:45;;;;;;;;;;;;;;;;;;1038744;28;19928;-76
2023/02/06 02:17:15;;;;;;;;;;;;;;;;;;1034935;28;20513;-76
2023/02/06 02:17:46;;;;;;;;;;;;;;;;;;1041206;28;19957;-77
2023/02/06 02:18:17;;;;;;;;;;;;;;;;;;1043108;28;20268;-77
2023/02/06 02:18:48;;;;;;;;;;;;;;;;;;1035511;28;19913;-77
2023/02/06 02:19:19;;;;;;;;;;;;;;;;;;1039906;28;19919;-76
2023/02/06 02:19:50;;;;;;;;;;;;;;;;;;1043011;28;19944;-76
2023/02/06 02:20:21;;;;;;;;;;;;;;;;;;1042677;28;19923;-77
2023/02/06 02:20:52;;;;;;;;;;;;;;;;;;1043094;28;19913;-76
2023/02/06 02:21:22;;;;;;;;;;;;;;;;;;1042956;28;20719;-76
2023/02/06 02:21:53;;;;;;;;;;;;;;;;;;1042960;28;19919;-76
2023/02/06 02:22:24;;;;;;;;;;;;;;;;;;1043272;28;19952;-76
2023/02/06 02:22:55;;;;;;;;;;;;;;;;;;1040971;28;19913;-76
2023/02/06 02:23:26;;;;;;;;;;;;;;;;;;1039695;28;19981;-76
2023/02/06 02:23:57;;;;;;;;;;;;;;;;;;1039687;28;19920;-75
2023/02/06 02:24:29;;;;;;;;;;;;;;;;;;1041096;28;20659;-77
2023/02/06 02:25:00;;;;;;;;;;;;;;;;;;1048201;28;19923;-77
2023/02/06 02:25:31;;;;;;;;;;;;;;;;;;1048076;28;19920;-76
2023/02/06 02:26:02;;;;;;;;;;;;;;;;;;1043781;28;20611;-77
2023/02/06 02:26:32;;;;;;;;;;;;;;;;;;1043755;28;20566;-76
2023/02/06 02:27:03;;;;;;;;;;;;;;;;;;1043891;28;20062;-76
2023/02/06 02:27:34;;;;;;;;;;;;;;;;;;1043656;28;19916;-76
2023/02/06 02:28:05;;;;;;;;;;;;;;;;;;1043714;28;19923;-76
2023/02/06 02:28:36;;;;;;;;;;;;;;;;;;1043928;28;19912;-77
2023/02/06 02:29:07;;;;;;;;;;;;;;;;;;1047927;28;19912;-77
2023/02/06 02:29:38;;;;;;;;;;;;;;;;;;1046037;28;19916;-76
2023/02/06 02:30:09;;;;;;;;;;;;;;;;;;1044120;28;19912;-76
2023/02/06 02:30:40;;;;;;;;;;;;;;;;;;1039611;28;19913;-76
2023/02/06 02:31:11;;;;;;;;;;;;;;;;;;1040335;28;19913;-76
2023/02/06 02:31:42;;;;;;;;;;;;;;;;;;1043536;28;20352;-76
2023/02/06 02:32:12;;;;;;;;;;;;;;;;;;1039287;28;19913;-75
2023/02/06 02:32:43;;;;;;;;;;;;;;;;;;1039423;28;19913;-78
2023/02/06 02:33:14;;;;;;;;;;;;;;;;;;1043171;28;19920;-76
2023/02/06 02:33:45;;;;;;;;;;;;;;;;;;1043813;28;19920;-77
2023/02/06 02:34:16;;;;;;;;;;;;;;;;;;1035720;28;19913;-76
2023/02/06 02:34:47;;;;;;;;;;;;;;;;;;1041904;28;19913;-76
2023/02/06 02:35:18;;;;;;;;;;;;;;;;;;1043776;28;20612;-75
2023/02/06 02:35:49;;;;;;;;;;;;;;;;;;1043972;28;19913;-75
2023/02/06 02:36:19;;;;;;;;;;;;;;;;;;1042592;28;19913;-76
2023/02/06 02:36:50;;;;;;;;;;;;;;;;;;1039470;28;19945;-76
2023/02/06 02:37:21;;;;;;;;;;;;;;;;;;1040086;28;19922;-77
2023/02/06 02:37:52;;;;;;;;;;;;;;;;;;1035279;28;19940;-76
2023/02/06 02:38:23;;;;;;;;;;;;;;;;;;1036618;28;19996;-76
2023/02/06 02:38:54;;;;;;;;;;;;;;;;;;1034743;28;20008;-77
2023/02/06 02:39:25;;;;;;;;;;;;;;;;;;1039099;28;19943;-75
2023/02/06 02:39:56;;;;;;;;;;;;;;;;;;1036444;28;19936;-77
2023/02/06 02:40:26;;;;;;;;;;;;;;;;;;1035305;28;19953;-77
2023/02/06 02:40:57;;;;;;;;;;;;;;;;;;1035568;28;19917;-76
2023/02/06 02:41:28;;;;;;;;;;;;;;;;;;1035557;28;20435;-76
2023/02/06 02:41:59;;;;;;;;;;;;;;;;;;1036152;28;19913;-76
2023/02/06 02:42:30;;;;;;;;;;;;;;;;;;1039872;28;19913;-75
2023/02/06 02:43:01;;;;;;;;;;;;;;;;;;1040115;28;20427;-75
2023/02/06 02:43:32;;;;;;;;;;;;;;;;;;1039431;28;19944;-76
2023/02/06 02:44:03;;;;;;;;;;;;;;;;;;1039773;28;19919;-76
2023/02/06 02:44:34;;;;;;;;;;;;;;;;;;1035217;28;20699;-76
2023/02/06 02:45:05;;;;;;;;;;;;;;;;;;1035435;28;20481;-76
2023/02/06 02:45:36;;;;;;;;;;;;;;;;;;1035132;28;20573;-76
2023/02/06 02:46:07;;;;;;;;;;;;;;;;;;1035582;28;19913;-76
2023/02/06 02:46:38;;;;;;;;;;;;;;;;;;1035048;28;19945;-76
2023/02/06 02:47:08;;;;;;;;;;;;;;;;;;1031519;28;20608;-76
2023/02/06 02:47:39;;;;;;;;;;;;;;;;;;1031468;28;19965;-75
2023/02/06 02:48:10;;;;;;;;;;;;;;;;;;1035705;28;19976;-76
2023/02/06 02:48:41;;;;;;;;;;;;;;;;;;1035439;28;19913;-76
2023/02/06 02:49:12;;;;;;;;;;;;;;;;;;1037646;28;19937;-76
2023/02/06 02:49:43;;;;;;;;;;;;;;;;;;1039931;28;20304;-76
2023/02/06 02:50:14;;;;;;;;;;;;;;;;;;1039973;28;20599;-76
2023/02/06 02:50:44;;;;;;;;;;;;;;;;;;1039766;28;19913;-75
2023/02/06 02:51:15;;;;;;;;;;;;;;;;;;1039981;28;20399;-76
2023/02/06 02:51:46;;;;;;;;;;;;;;;;;;1039921;28;19941;-75
2023/02/06 02:52:17;;;;;;;;;;;;;;;;;;1039932;28;20255;-75
2023/02/06 02:52:48;;;;;;;;;;;;;;;;;;1039798;28;19939;-76
2023/02/06 02:53:19;;;;;;;;;;;;;;;;;;1039928;28;20530;-75
2023/02/06 02:53:50;;;;;;;;;;;;;;;;;;1039907;28;19913;-76
2023/02/06 02:54:20;;;;;;;;;;;;;;;;;;1039829;28;19990;-76
2023/02/06 02:54:51;;;;;;;;;;;;;;;;;;1039761;28;19959;-77
2023/02/06 02:55:22;;;;;;;;;;;;;;;;;;1040018;28;19913;-77
2023/02/06 02:55:53;;;;;;;;;;;;;;;;;;1039678;28;19913;-75
2023/02/06 02:56:24;;;;;;;;;;;;;;;;;;1039790;28;20111;-76
2023/02/06 02:56:55;;;;;;;;;;;;;;;;;;1039871;28;19944;-75
2023/02/06 02:57:26;;;;;;;;;;;;;;;;;;1039980;28;20280;-75
2023/02/06 02:57:57;;;;;;;;;;;;;;;;;;1039372;28;19913;-76
2023/02/06 02:58:27;;;;;;;;;;;;;;;;;;1039565;28;19913;-76
2023/02/06 02:58:58;;;;;;;;;;;;;;;;;;1039598;28;19913;-75
2023/02/06 02:59:29;;;;;;;;;;;;;;;;;;1039383;28;20016;-75
2023/02/06 03:00:00;;;;;;;;;;;;;;;;;;1039927;28;19913;-75
2023/02/06 03:00:31;;;;;;;;;;;;;;;;;;1039266;28;19909;-76
2023/02/06 03:01:02;;;;;;;;;;;;;;;;;;1035392;28;20747;-76
2023/02/06 03:01:33;;;;;;;;;;;;;;;;;;1035274;28;19909;-76
2023/02/06 03:02:04;;;;;;;;;;;;;;;;;;1035397;28;19928;-76
2023/02/06 03:02:35;;;;;;;;;;;;;;;;;;1035155;28;19910;-76
2023/02/06 03:03:07;;;;;;;;;;;;;;;;;;1035683;28;19952;-76
2023/02/06 03:03:37;;;;;;;;;;;;;;;;;;1035868;28;19910;-77
2023/02/06 03:04:08;;;;;;;;;;;;;;;;;;1035566;28;19910;-76
2023/02/06 03:04:39;;;;;;;;;;;;;;;;;;1035389;28;19916;-76
2023/02/06 03:05:10;;;;;;;;;;;;;;;;;;1035540;28;19956;-76
2023/02/06 03:05:41;;;;;;;;;;;;;;;;;;1035572;28;19909;-76
2023/02/06 03:06:12;;;;;;;;;;;;;;;;;;1037294;28;19940;-76
2023/02/06 03:06:43;;;;;;;;;;;;;;;;;;1035472;28;20049;-77
2023/02/06 03:07:14;;;;;;;;;;;;;;;;;;1035531;28;19916;-77
2023/02/06 03:07:45;;;;;;;;;;;;;;;;;;1035245;28;19917;-77
2023/02/06 03:08:16;;;;;;;;;;;;;;;;;;1035882;28;20000;-77
2023/02/06 03:08:47;;;;;;;;;;;;;;;;;;1039838;28;20003;-77
2023/02/06 03:09:17;;;;;;;;;;;;;;;;;;1040070;28;19909;-77
2023/02/06 03:09:48;;;;;;;;;;;;;;;;;;1039719;28;19905;-76
2023/02/06 03:10:19;;;;;;;;;;;;;;;;;;1039954;28;20361;-76
2023/02/06 03:10:50;;;;;;;;;;;;;;;;;;1039804;28;19917;-76
2023/02/06 03:11:21;;;;;;;;;;;;;;;;;;1039703;28;20373;-77
2023/02/06 03:11:52;;;;;;;;;;;;;;;;;;1039513;28;19996;-78
2023/02/06 03:12:23;;;;;;;;;;;;;;;;;;1039532;28;20379;-77
2023/02/06 03:12:53;;;;;;;;;;;;;;;;;;1039329;28;19910;-75
2023/02/06 03:13:24;;;;;;;;;;;;;;;;;;1039638;28;20638;-76
2023/02/06 03:13:55;;;;;;;;;;;;;;;;;;1039736;28;19915;-76
2023/02/06 03:14:26;;;;;;;;;;;;;;;;;;1039886;28;20200;-76
2023/02/06 03:14:57;;;;;;;;;;;;;;;;;;1039773;28;19960;-75
2023/02/06 03:15:29;;;;;;;;;;;;;;;;;;1035202;28;19915;-76
2023/02/06 03:16:00;;;;;;;;;;;;;;;;;;1035265;28;19984;-74
2023/02/06 03:16:30;;;;;;;;;;;;;;;;;;1035092;28;20028;-76
2023/02/06 03:17:01;;;;;;;;;;;;;;;;;;1031379;28;19910;-76
2023/02/06 03:17:32;;;;;;;;;;;;;;;;;;1031028;28;19910;-75
2023/02/06 03:18:03;;;;;;;;;;;;;;;;;;1031318;28;20009;-76
2023/02/06 03:18:34;;;;;;;;;;;;;;;;;;1031454;28;20585;-77
2023/02/06 03:19:05;;;;;;;;;;;;;;;;;;1035491;28;19910;-76
2023/02/06 03:19:36;;;;;;;;;;;;;;;;;;1035387;28;19910;-76
2023/02/06 03:20:07;;;;;;;;;;;;;;;;;;1035514;28;19905;-76
2023/02/06 03:20:38;;;;;;;;;;;;;;;;;;1039903;28;20352;-76
2023/02/06 03:21:09;;;;;;;;;;;;;;;;;;1039340;28;20003;-76
2023/02/06 03:21:39;;;;;;;;;;;;;;;;;;1039494;28;20681;-76
2023/02/06 03:22:10;;;;;;;;;;;;;;;;;;1039465;28;19910;-76
2023/02/06 03:22:41;;;;;;;;;;;;;;;;;;1035366;28;20326;-76
2023/02/06 03:23:12;;;;;;;;;;;;;;;;;;1035261;28;19918;-76
2023/02/06 03:23:43;;;;;;;;;;;;;;;;;;1035473;28;20000;-75
2023/02/06 03:24:14;;;;;;;;;;;;;;;;;;1035486;28;20285;-76
2023/02/06 03:24:45;;;;;;;;;;;;;;;;;;1035489;28;19910;-77
2023/02/06 03:25:15;;;;;;;;;;;;;;;;;;1039536;28;20756;-76
2023/02/06 03:25:46;;;;;;;;;;;;;;;;;;1039576;28;19909;-77
2023/02/06 03:26:17;;;;;;;;;;;;;;;;;;1035336;28;19992;-77
2023/02/06 03:26:48;;;;;;;;;;;;;;;;;;1035407;28;20408;-76
2023/02/06 03:27:19;;;;;;;;;;;;;;;;;;1035671;28;19910;-76
2023/02/06 03:27:50;;;;;;;;;;;;;;;;;;1035521;28;20372;-76
2023/02/06 03:28:22;;;;;;;;;;;;;;;;;;1037876;28;19909;-77
2023/02/06 03:28:53;;;;;;;;;;;;;;;;;;1035362;28;20004;-76
2023/02/06 03:29:24;;;;;;;;;;;;;;;;;;1035398;28;20279;-77
2023/02/06 03:29:55;;;;;;;;;;;;;;;;;;1035882;28;19910;-76
2023/02/06 03:30:25;;;;;;;;;;;;;;;;;;1039397;28;19909;-76
2023/02/06 03:30:56;;;;;;;;;;;;;;;;;;1039438;28;19909;-76